createdAt,value
2023-02-11T00:00:59.256Z,100.00
2023-02-11T00:03:26.284Z,100.00
2023-02-11T00:06:05.343Z,100.00
2023-02-11T00:08:31.962Z,100.00
2023-02-11T00:10:58.992Z,100.00
2023-02-11T00:13:25.908Z,100.00
2023-02-11T00:15:52.885Z,100.00
2023-02-11T00:18:19.483Z,100.00
2023-02-11T00:20:46.443Z,100.00
2023-02-11T00:23:13.394Z,100.00
2023-02-11T00:25:42.265Z,100.00
2023-02-11T00:28:09.881Z,99.94
2023-02-11T00:30:36.798Z,100.00
2023-02-11T00:33:03.932Z,99.85
2023-02-11T00:35:32.300Z,99.88
2023-02-11T00:38:00.328Z,100.00
2023-02-11T00:40:27.300Z,99.85
2023-02-11T00:42:53.804Z,99.65
2023-02-11T00:45:21.217Z,99.84
2023-02-11T00:47:48.167Z,99.93
2023-02-11T00:50:14.998Z,99.81
2023-02-11T00:52:41.622Z,99.54
2023-02-11T00:55:09.032Z,99.51
2023-02-11T00:57:35.753Z,99.75
2023-02-11T01:00:02.968Z,99.49
2023-02-11T01:02:29.565Z,99.41
2023-02-11T01:04:56.179Z,99.65
2023-02-11T01:07:23.358Z,99.62
2023-02-11T01:09:49.895Z,99.72
2023-02-11T01:12:16.501Z,99.22
2023-02-11T01:14:43.786Z,99.11
2023-02-11T01:17:11.290Z,99.46
2023-02-11T01:19:38.213Z,98.77
2023-02-11T01:22:06.586Z,99.18
2023-02-11T01:24:33.322Z,99.06
2023-02-11T01:26:59.903Z,99.38
2023-02-11T01:29:26.418Z,99.18
2023-02-11T01:31:54.501Z,99.51
2023-02-11T01:34:21.073Z,99.55
2023-02-11T01:36:47.682Z,99.22
2023-02-11T01:39:14.251Z,99.43
2023-02-11T01:41:40.774Z,99.14
2023-02-11T01:44:42.735Z,99.38
2023-02-11T01:47:09.559Z,99.42
2023-02-11T01:49:43.742Z,99.22
2023-02-11T01:52:18.999Z,99.43
2023-02-11T01:55:19.370Z,99.23
2023-02-11T01:57:51.950Z,99.40
2023-02-11T02:00:30.017Z,99.60
2023-02-11T02:03:20.118Z,99.67
2023-02-11T02:05:53.876Z,99.58
2023-02-11T02:08:42.276Z,99.99
2023-02-11T02:11:09.184Z,99.71
2023-02-11T02:13:37.527Z,99.57
2023-02-11T02:16:09.657Z,99.59
2023-02-11T02:18:55.200Z,99.69
2023-02-11T02:21:49.718Z,100.00
2023-02-11T02:24:56.502Z,100.00
2023-02-11T02:27:30.667Z,99.51
2023-02-11T02:30:16.380Z,100.00
2023-02-11T02:33:21.670Z,100.00
2023-02-11T02:36:18.150Z,100.00
2023-02-11T02:38:57.443Z,100.00
2023-02-11T02:41:28.475Z,100.00
2023-02-11T02:43:55.463Z,100.00
2023-02-11T02:46:25.022Z,100.00
2023-02-11T02:48:53.128Z,100.00
2023-02-11T02:51:55.115Z,100.00
2023-02-11T02:54:50.996Z,100.00
2023-02-11T02:57:47.118Z,100.00
2023-02-11T03:00:25.776Z,100.00
2023-02-11T03:03:19.818Z,100.00
2023-02-11T03:05:49.716Z,100.00
2023-02-11T03:08:24.312Z,100.00
2023-02-11T03:10:53.611Z,100.00
2023-02-11T03:13:33.745Z,100.00
2023-02-11T03:16:08.249Z,100.00
2023-02-11T03:18:39.639Z,100.00
2023-02-11T03:21:09.719Z,100.00
2023-02-11T03:23:49.859Z,100.00
2023-02-11T03:26:16.289Z,100.00
2023-02-11T03:28:54.909Z,100.00
2023-02-11T03:31:58.877Z,100.00
2023-02-11T03:34:33.375Z,100.00
2023-02-11T03:37:15.016Z,100.00
2023-02-11T03:39:47.562Z,100.00
2023-02-11T03:42:16.269Z,100.00
2023-02-11T03:44:52.551Z,100.00
2023-02-11T03:47:23.596Z,100.00
2023-02-11T03:49:53.332Z,100.00
2023-02-11T03:52:23.203Z,100.00
2023-02-11T03:54:55.326Z,100.00
2023-02-11T03:57:21.913Z,100.00
2023-02-11T03:59:54.380Z,100.00
2023-02-11T04:02:25.213Z,100.00
2023-02-11T04:04:51.820Z,100.00
2023-02-11T04:07:18.446Z,100.00
2023-02-11T04:09:44.992Z,100.00
2023-02-11T04:12:11.832Z,100.00
2023-02-11T04:14:38.707Z,100.00
2023-02-11T04:17:05.540Z,100.00
2023-02-11T04:19:32.329Z,100.00
2023-02-11T04:21:58.923Z,100.00
2023-02-11T04:24:25.508Z,100.00
2023-02-11T04:26:52.651Z,100.00
2023-02-11T04:29:19.552Z,100.00
2023-02-11T04:31:46.286Z,100.00
2023-02-11T04:34:12.826Z,100.00
2023-02-11T04:36:39.431Z,100.00
2023-02-11T04:39:06.494Z,100.00
2023-02-11T04:41:33.311Z,100.00
2023-02-11T04:43:59.835Z,100.00
2023-02-11T04:46:26.473Z,100.00
2023-02-11T04:48:53.225Z,100.00
2023-02-11T04:51:19.780Z,100.00
2023-02-11T04:53:46.321Z,100.00
2023-02-11T04:56:12.848Z,100.00
2023-02-11T04:58:39.518Z,100.00
2023-02-11T05:01:11.383Z,100.00
2023-02-11T05:03:38.117Z,100.00
2023-02-11T05:06:05.688Z,100.00
2023-02-11T05:08:32.283Z,100.00
2023-02-11T05:10:59.523Z,100.00
2023-02-11T05:13:26.084Z,100.00
2023-02-11T05:15:53.123Z,100.00
2023-02-11T05:18:19.821Z,100.00
2023-02-11T05:20:46.324Z,100.00
2023-02-11T05:23:12.877Z,100.00
2023-02-11T05:25:39.370Z,100.00
2023-02-11T05:28:06.681Z,100.00
2023-02-11T05:30:33.309Z,100.00
2023-02-11T05:32:59.856Z,100.00
2023-02-11T05:35:26.404Z,100.00
2023-02-11T05:37:53.044Z,100.00
2023-02-11T05:40:19.650Z,100.00
2023-02-11T05:42:46.188Z,100.00
2023-02-11T05:45:12.752Z,100.00
2023-02-11T05:47:39.309Z,100.00
2023-02-11T05:50:06.173Z,100.00
2023-02-11T05:52:32.919Z,100.00
2023-02-11T05:54:59.588Z,100.00
2023-02-11T05:57:26.078Z,100.00
2023-02-11T05:59:52.626Z,100.00
2023-02-11T06:02:19.149Z,100.00
2023-02-11T06:04:45.635Z,100.00
2023-02-11T06:07:12.268Z,100.00
2023-02-11T06:09:38.928Z,100.00
2023-02-11T06:12:05.690Z,100.00
2023-02-11T06:14:34.182Z,100.00
2023-02-11T06:17:01.358Z,100.00
2023-02-11T06:19:27.955Z,100.00
2023-02-11T06:21:56.174Z,100.00
2023-02-11T06:24:47.798Z,100.00
2023-02-11T06:27:09.484Z,100.00
2023-02-11T06:29:37.187Z,100.00
2023-02-11T06:32:04.353Z,100.00
2023-02-11T06:34:31.009Z,100.00
2023-02-11T06:36:57.544Z,100.00
2023-02-11T06:39:24.075Z,100.00
2023-02-11T06:41:50.576Z,100.00
2023-02-11T06:44:17.154Z,100.00
2023-02-11T06:46:43.749Z,100.00
2023-02-11T06:49:10.455Z,100.00
2023-02-11T06:51:37.053Z,100.00
2023-02-11T06:54:05.561Z,100.00
2023-02-11T06:56:32.755Z,100.00
2023-02-11T06:58:59.443Z,100.00
2023-02-11T07:01:27.595Z,100.00
2023-02-11T07:03:54.683Z,100.00
2023-02-11T07:06:24.799Z,100.00
2023-02-11T07:08:51.418Z,100.00
2023-02-11T07:11:20.573Z,100.00
2023-02-11T07:13:47.609Z,100.00
2023-02-11T07:16:16.047Z,100.00
2023-02-11T07:18:43.032Z,100.00
2023-02-11T07:21:12.257Z,100.00
2023-02-11T07:23:40.759Z,100.00
2023-02-11T07:26:09.852Z,100.00
2023-02-11T07:28:40.012Z,100.00
2023-02-11T07:31:10.893Z,100.00
2023-02-11T07:33:37.843Z,100.00
2023-02-11T07:36:06.085Z,100.00
2023-02-11T07:38:34.305Z,100.00
2023-02-11T07:41:02.177Z,100.00
2023-02-11T07:43:28.842Z,100.00
2023-02-11T07:45:55.377Z,100.00
2023-02-11T07:48:21.858Z,100.00
2023-02-11T07:50:48.381Z,100.00
2023-02-11T07:53:14.918Z,100.00
2023-02-11T07:55:43.151Z,100.00
2023-02-11T07:58:09.722Z,100.00
2023-02-11T08:00:36.375Z,100.00
2023-02-11T08:03:03.678Z,100.00
2023-02-11T08:05:30.494Z,100.00
2023-02-11T08:07:56.996Z,100.00
2023-02-11T08:10:23.464Z,100.00
2023-02-11T08:12:50.011Z,100.00
2023-02-11T08:15:16.575Z,100.00
2023-02-11T08:17:43.145Z,100.00
2023-02-11T08:20:10.158Z,100.00
2023-02-11T08:22:36.788Z,100.00
2023-02-11T08:25:03.394Z,100.00
2023-02-11T08:27:29.994Z,100.00
2023-02-11T08:29:56.608Z,100.00
2023-02-11T08:32:25.428Z,100.00
2023-02-11T08:34:52.882Z,100.00
2023-02-11T08:37:19.977Z,100.00
2023-02-11T08:39:47.292Z,100.00
2023-02-11T08:42:15.542Z,100.00
2023-02-11T08:44:43.181Z,100.00
2023-02-11T08:47:09.848Z,100.00
2023-02-11T08:49:36.529Z,100.00
2023-02-11T08:52:04.189Z,100.00
2023-02-11T08:54:31.395Z,100.00
2023-02-11T08:56:58.114Z,100.00
2023-02-11T08:59:24.628Z,100.00
2023-02-11T09:01:51.386Z,100.00
2023-02-11T09:04:17.984Z,100.00
2023-02-11T09:06:44.618Z,100.00
2023-02-11T09:09:13.514Z,100.00
2023-02-11T09:11:41.388Z,100.00
2023-02-11T09:14:08.532Z,100.00
2023-02-11T09:16:36.532Z,100.00
2023-02-11T09:19:04.883Z,100.00
2023-02-11T09:21:31.783Z,100.00
2023-02-11T09:23:58.351Z,100.00
2023-02-11T09:26:30.900Z,100.00
2023-02-11T09:28:58.251Z,100.00
2023-02-11T09:31:26.839Z,100.00
2023-02-11T09:33:56.875Z,100.00
2023-02-11T09:36:26.709Z,100.00
2023-02-11T09:38:53.552Z,100.00
2023-02-11T09:41:22.932Z,100.00
2023-02-11T09:43:56.203Z,100.00
2023-02-11T09:46:24.770Z,100.00
2023-02-11T09:48:54.509Z,100.00
2023-02-11T09:51:41.191Z,100.00
2023-02-11T09:54:18.296Z,100.00
2023-02-11T09:56:44.821Z,100.00
2023-02-11T09:59:16.484Z,100.00
2023-02-11T10:02:14.262Z,100.00
2023-02-11T10:05:19.539Z,100.00
2023-02-11T10:08:16.842Z,100.00
2023-02-11T10:10:58.741Z,100.00
2023-02-11T10:13:33.286Z,100.00
2023-02-11T10:16:11.713Z,100.00
2023-02-11T10:19:19.204Z,100.00
2023-02-11T10:21:51.538Z,100.00
2023-02-11T10:24:19.008Z,100.00
2023-02-11T10:26:46.330Z,100.00
2023-02-11T10:29:38.552Z,100.00
2023-02-11T10:32:10.600Z,100.00
2023-02-11T10:34:41.688Z,100.00
2023-02-11T10:37:12.935Z,100.00
2023-02-11T10:39:41.142Z,100.00
2023-02-11T10:42:12.139Z,100.00
2023-02-11T10:45:00.802Z,100.00
2023-02-11T10:47:36.691Z,100.00
2023-02-11T10:50:33.402Z,100.00
2023-02-11T10:53:21.068Z,100.00
2023-02-11T10:55:53.727Z,100.00
2023-02-11T10:58:26.592Z,100.00
2023-02-11T11:00:55.373Z,100.00
2023-02-11T11:03:25.332Z,100.00
2023-02-11T11:06:00.808Z,100.00
2023-02-11T11:08:51.148Z,100.00
2023-02-11T11:11:20.618Z,100.00
2023-02-11T11:13:52.846Z,100.00
2023-02-11T11:16:26.403Z,100.00
2023-02-11T11:19:15.386Z,100.00
2023-02-11T11:21:47.548Z,100.00
2023-02-11T11:24:27.826Z,100.00
2023-02-11T11:26:59.468Z,100.00
2023-02-11T11:29:35.767Z,100.00
2023-02-11T11:32:07.117Z,100.00
2023-02-11T11:34:40.532Z,100.00
2023-02-11T11:37:13.551Z,100.00
2023-02-11T11:39:40.639Z,100.00
2023-02-11T11:42:28.358Z,100.00
2023-02-11T11:45:04.560Z,100.00
2023-02-11T11:47:44.960Z,100.00
2023-02-11T11:50:27.056Z,100.00
2023-02-11T11:53:13.822Z,100.00
2023-02-11T11:56:14.184Z,100.00
2023-02-11T11:58:41.154Z,100.00
2023-02-11T12:01:24.975Z,100.00
2023-02-11T12:04:09.425Z,100.00
2023-02-11T12:07:06.993Z,100.00
2023-02-11T12:10:04.494Z,100.00
2023-02-11T12:12:46.959Z,100.00
2023-02-11T12:15:31.880Z,100.00
2023-02-11T12:18:19.986Z,100.00
2023-02-11T12:21:10.790Z,100.00
2023-02-11T12:23:50.249Z,100.00
2023-02-11T12:26:20.675Z,100.00
2023-02-11T12:29:13.389Z,100.00
2023-02-11T12:32:15.577Z,100.00
2023-02-11T12:34:52.559Z,100.00
2023-02-11T12:37:45.703Z,100.00
2023-02-11T12:40:46.789Z,100.00
2023-02-11T12:43:25.094Z,100.00
2023-02-11T12:46:07.200Z,100.00
2023-02-11T12:49:11.995Z,100.00
2023-02-11T12:51:41.358Z,100.00
2023-02-11T12:54:49.802Z,100.00
2023-02-11T12:57:26.202Z,100.00
2023-02-11T13:00:14.877Z,100.00
2023-02-11T13:02:49.295Z,100.00
2023-02-11T13:05:27.072Z,100.00
2023-02-11T13:07:59.212Z,100.00
2023-02-11T13:10:41.535Z,100.00
2023-02-11T13:13:20.984Z,100.00
2023-02-11T13:15:51.997Z,100.00
2023-02-11T13:19:00.271Z,100.00
2023-02-11T13:21:34.830Z,100.00
2023-02-11T13:24:08.000Z,100.00
2023-02-11T13:27:11.544Z,100.00
2023-02-11T13:30:21.363Z,100.00
2023-02-11T13:32:53.882Z,100.00
2023-02-11T13:35:33.877Z,100.00
2023-02-11T13:38:03.120Z,100.00
2023-02-11T13:40:34.202Z,100.00
2023-02-11T13:43:03.365Z,100.00
2023-02-11T13:45:47.567Z,100.00
2023-02-11T13:48:27.466Z,100.00
2023-02-11T13:50:58.205Z,100.00
2023-02-11T13:53:25.889Z,100.00
2023-02-11T13:56:07.653Z,100.00
2023-02-11T13:58:39.753Z,100.00
2023-02-11T14:01:07.789Z,100.00
2023-02-11T14:04:09.386Z,100.00
2023-02-11T14:06:54.299Z,100.00
2023-02-11T14:09:20.790Z,100.00
2023-02-11T14:12:09.186Z,100.00
2023-02-11T14:15:10.715Z,100.00
2023-02-11T14:17:37.312Z,100.00
2023-02-11T14:20:24.643Z,100.00
2023-02-11T14:22:53.429Z,100.00
2023-02-11T14:25:25.625Z,100.00
2023-02-11T14:28:34.834Z,100.00
2023-02-11T14:31:12.952Z,100.00
2023-02-11T14:33:52.331Z,100.00
2023-02-11T14:36:46.158Z,100.00
2023-02-11T14:39:24.187Z,100.00
2023-02-11T14:41:51.144Z,100.00
2023-02-11T14:44:23.224Z,100.00
2023-02-11T14:46:53.306Z,100.00
2023-02-11T14:49:33.467Z,100.00
2023-02-11T14:52:13.706Z,100.00
2023-02-11T14:54:43.161Z,100.00
2023-02-11T14:57:17.360Z,100.00
2023-02-11T15:00:02.308Z,100.00
2023-02-11T15:02:34.900Z,100.00
2023-02-11T15:05:23.700Z,100.00
2023-02-11T15:07:56.957Z,100.00
2023-02-11T15:10:37.357Z,100.00
2023-02-11T15:13:05.391Z,100.00
2023-02-11T15:15:33.130Z,100.00
2023-02-11T15:18:02.822Z,100.00
2023-02-11T15:20:32.367Z,100.00
2023-02-11T15:23:05.898Z,100.00
2023-02-11T15:25:34.265Z,100.00
2023-02-11T15:28:01.075Z,100.00
2023-02-11T15:30:34.144Z,100.00
2023-02-11T15:33:03.569Z,100.00
2023-02-11T15:35:34.919Z,100.00
2023-02-11T15:38:01.488Z,100.00
2023-02-11T15:40:32.398Z,100.00
2023-02-11T15:43:02.857Z,100.00
2023-02-11T15:45:42.037Z,100.00
2023-02-11T15:48:21.316Z,100.00
2023-02-11T15:50:58.687Z,100.00
2023-02-11T15:53:43.272Z,100.00
2023-02-11T15:56:43.001Z,100.00
2023-02-11T15:59:17.280Z,100.00
2023-02-11T16:01:45.520Z,100.00
2023-02-11T16:04:25.198Z,100.00
2023-02-11T16:06:53.221Z,100.00
2023-02-11T16:09:19.739Z,100.00
2023-02-11T16:11:46.235Z,100.00
2023-02-11T16:14:39.316Z,100.00
2023-02-11T16:17:25.749Z,100.00
2023-02-11T16:19:53.554Z,100.00
2023-02-11T16:22:26.251Z,100.00
2023-02-11T16:24:55.152Z,100.00
2023-02-11T16:27:33.961Z,100.00
2023-02-11T16:30:00.539Z,100.00
2023-02-11T16:32:29.077Z,100.00
2023-02-11T16:34:58.350Z,100.00
2023-02-11T16:37:25.573Z,100.00
2023-02-11T16:39:56.663Z,100.00
2023-02-11T16:42:23.435Z,100.00
2023-02-11T16:44:50.034Z,100.00
2023-02-11T16:47:25.784Z,100.00
2023-02-11T16:49:52.709Z,100.00
2023-02-11T16:52:21.716Z,100.00
2023-02-11T16:54:48.465Z,100.00
2023-02-11T16:57:18.442Z,100.00
2023-02-11T16:59:45.941Z,100.00
2023-02-11T17:02:29.279Z,100.00
2023-02-11T17:04:58.684Z,100.00
2023-02-11T17:07:25.458Z,100.00
2023-02-11T17:09:52.169Z,100.00
2023-02-11T17:12:19.357Z,100.00
2023-02-11T17:14:45.847Z,100.00
2023-02-11T17:17:13.362Z,100.00
2023-02-11T17:19:40.017Z,100.00
2023-02-11T17:22:06.788Z,100.00
2023-02-11T17:24:33.327Z,100.00
2023-02-11T17:26:59.940Z,100.00
2023-02-11T17:29:27.069Z,100.00
2023-02-11T17:31:53.723Z,100.00
2023-02-11T17:34:21.613Z,100.00
2023-02-11T17:36:48.460Z,100.00
2023-02-11T17:39:15.223Z,100.00
2023-02-11T17:41:41.993Z,100.00
2023-02-11T17:44:10.413Z,100.00
2023-02-11T17:46:36.935Z,100.00
2023-02-11T17:49:04.310Z,100.00
2023-02-11T17:51:34.836Z,100.00
2023-02-11T17:54:04.759Z,100.00
2023-02-11T17:56:36.263Z,100.00
2023-02-11T17:59:04.173Z,100.00
2023-02-11T18:01:32.241Z,100.00
2023-02-11T18:03:59.053Z,100.00
2023-02-11T18:06:26.700Z,100.00
2023-02-11T18:08:56.829Z,100.00
2023-02-11T18:11:25.145Z,100.00
2023-02-11T18:13:54.432Z,100.00
2023-02-11T18:16:22.182Z,100.00
2023-02-11T18:18:49.742Z,100.00
2023-02-11T18:21:19.234Z,100.00
2023-02-11T18:23:46.357Z,100.00
2023-02-11T18:26:14.967Z,100.00
2023-02-11T18:28:45.311Z,100.00
2023-02-11T18:31:13.727Z,100.00
2023-02-11T18:33:41.094Z,100.00
2023-02-11T18:36:10.612Z,100.00
2023-02-11T18:38:37.592Z,100.00
2023-02-11T18:41:04.730Z,100.00
2023-02-11T18:43:34.439Z,100.00
2023-02-11T18:46:03.130Z,100.00
2023-02-11T18:48:29.754Z,100.00
2023-02-11T18:50:56.482Z,100.00
2023-02-11T18:53:24.694Z,100.00
2023-02-11T18:55:52.715Z,100.00
2023-02-11T18:58:21.127Z,100.00
2023-02-11T19:00:48.549Z,100.00
2023-02-11T19:03:15.365Z,100.00
2023-02-11T19:05:42.671Z,100.00
2023-02-11T19:08:09.512Z,100.00
2023-02-11T19:10:39.981Z,100.00
2023-02-11T19:13:06.512Z,100.00
2023-02-11T19:15:33.074Z,100.00
2023-02-11T19:17:59.598Z,100.00
2023-02-11T19:20:26.095Z,100.00
2023-02-11T19:22:52.639Z,100.00
2023-02-11T19:25:19.343Z,100.00
2023-02-11T19:27:45.924Z,100.00
2023-02-11T19:30:12.687Z,100.00
2023-02-11T19:32:39.244Z,100.00
2023-02-11T19:35:06.345Z,100.00
2023-02-11T19:37:32.865Z,100.00
2023-02-11T19:39:59.425Z,100.00
2023-02-11T19:42:27.661Z,100.00
2023-02-11T19:44:54.321Z,100.00
2023-02-11T19:47:27.459Z,100.00
2023-02-11T19:49:54.378Z,100.00
2023-02-11T19:52:20.962Z,100.00
2023-02-11T19:54:47.484Z,100.00
2023-02-11T19:57:14.067Z,100.00
2023-02-11T19:59:40.558Z,100.00
2023-02-11T20:02:07.446Z,100.00
2023-02-11T20:04:34.024Z,100.00
2023-02-11T20:07:00.596Z,100.00
2023-02-11T20:09:28.985Z,100.00
2023-02-11T20:11:55.532Z,100.00
2023-02-11T20:14:22.185Z,100.00
2023-02-11T20:16:50.107Z,100.00
2023-02-11T20:19:19.252Z,100.00
2023-02-11T20:21:48.430Z,100.00
2023-02-11T20:24:17.321Z,100.00
2023-02-11T20:26:45.164Z,100.00
2023-02-11T20:29:12.386Z,100.00
2023-02-11T20:31:39.064Z,100.00
2023-02-11T20:34:05.773Z,100.00
2023-02-11T20:36:35.586Z,100.00
2023-02-11T20:39:04.832Z,100.00
2023-02-11T20:41:36.425Z,100.00
2023-02-11T20:44:06.290Z,100.00
2023-02-11T20:46:34.376Z,100.00
2023-02-11T20:49:01.694Z,100.00
2023-02-11T20:51:31.481Z,100.00
2023-02-11T20:53:58.435Z,100.00
2023-02-11T20:56:30.592Z,100.00
2023-02-11T20:58:58.613Z,100.00
2023-02-11T21:01:31.403Z,100.00
2023-02-11T21:04:03.587Z,100.00
2023-02-11T21:06:35.835Z,100.00
2023-02-11T21:09:04.341Z,100.00
2023-02-11T21:11:31.354Z,100.00
2023-02-11T21:13:58.341Z,100.00
2023-02-11T21:16:24.997Z,100.00
2023-02-11T21:18:52.208Z,100.00
2023-02-11T21:21:19.543Z,100.00
2023-02-11T21:23:46.268Z,100.00
2023-02-11T21:26:14.083Z,100.00
2023-02-11T21:28:41.433Z,100.00
2023-02-11T21:31:08.404Z,99.64
2023-02-11T21:33:35.165Z,100.00
2023-02-11T21:36:04.633Z,100.00
2023-02-11T21:38:31.360Z,99.71
2023-02-11T21:41:03.963Z,99.78
2023-02-11T21:43:30.554Z,99.57
2023-02-11T21:45:57.392Z,99.57
2023-02-11T21:48:25.631Z,99.07
2023-02-11T21:50:53.293Z,99.18
2023-02-11T21:53:19.842Z,99.04
2023-02-11T21:55:46.432Z,99.28
2023-02-11T21:58:13.080Z,99.29
2023-02-11T22:00:39.661Z,99.18
2023-02-11T22:03:06.373Z,98.48
2023-02-11T22:05:32.951Z,98.60
2023-02-11T22:07:59.522Z,98.25
2023-02-11T22:10:26.155Z,97.96
2023-02-11T22:12:52.748Z,97.94
2023-02-11T22:15:19.692Z,97.81
2023-02-11T22:17:46.277Z,97.79
2023-02-11T22:20:12.881Z,97.72
2023-02-11T22:22:39.431Z,97.34
2023-02-11T22:25:06.367Z,97.01
2023-02-11T22:27:33.052Z,96.66
2023-02-11T22:29:59.601Z,96.70
2023-02-11T22:32:26.286Z,97.02
2023-02-11T22:34:53.509Z,96.62
2023-02-11T22:37:20.442Z,96.78
2023-02-11T22:39:47.024Z,95.53
2023-02-11T22:42:13.579Z,94.99
2023-02-11T22:44:40.142Z,95.77
2023-02-11T22:47:06.775Z,96.10
2023-02-11T22:49:33.647Z,95.16
2023-02-11T22:52:00.375Z,94.88
2023-02-11T22:54:27.168Z,95.02
2023-02-11T22:56:53.674Z,94.66
2023-02-11T22:59:21.681Z,94.83
2023-02-11T23:01:48.391Z,94.97
2023-02-11T23:04:16.894Z,95.26
2023-02-11T23:06:43.484Z,94.76
2023-02-11T23:09:12.340Z,94.78
2023-02-11T23:11:39.640Z,93.74
2023-02-11T23:14:08.533Z,94.18
2023-02-11T23:16:35.328Z,93.75
2023-02-11T23:19:06.216Z,93.56
2023-02-11T23:21:35.290Z,93.11
2023-02-11T23:24:22.052Z,94.02
2023-02-11T23:26:48.654Z,93.48
2023-02-11T23:29:15.291Z,93.42
2023-02-11T23:31:45.871Z,92.95
2023-02-11T23:34:17.103Z,93.17
2023-02-11T23:36:44.380Z,92.25
2023-02-11T23:39:15.235Z,92.03
2023-02-11T23:41:41.770Z,92.72
2023-02-11T23:44:09.878Z,92.85
2023-02-11T23:46:36.537Z,92.51
2023-02-11T23:49:03.520Z,93.11
2023-02-11T23:51:30.322Z,92.28
2023-02-11T23:53:56.860Z,92.09
2023-02-11T23:56:26.522Z,92.08
2023-02-11T23:58:55.546Z,91.75
